Time;durP1;ratioP1;P1;durP2;ratioP2;P2;SDS_P1;SDS_P2;PMS_P1;PMS_P2;Temp;Humidity;BMP_temperature;BMP_pressure;BME280_temperature;BME280_humidity;BME280_pressure;Samples;Min_cycle;Max_cycle;Signal;HPM_P1;HPM_P2
2022/03/22 00:00:38;;;;;;;31.08;15.10;;;;;;;;;;5091481;28;20016;-59
2022/03/22 00:03:05;;;;;;;25.80;14.18;;;;;;;;;;5091235;28;20016;-59
2022/03/22 00:05:31;;;;;;;23.23;15.55;;;;;;;;;;5091833;28;20028;-58
2022/03/22 00:07:57;;;;;;;23.52;14.50;;;;;;;;;;5091642;28;20040;-59
2022/03/22 00:10:23;;;;;;;28.98;14.93;;;;;;;;;;5091327;28;20509;-58
2022/03/22 00:12:51;;;;;;;23.52;14.10;;;;;;;;;;5091049;28;20044;-59
2022/03/22 00:15:17;;;;;;;23.95;13.63;;;;;;;;;;5090956;28;20467;-59
2022/03/22 00:17:43;;;;;;;22.98;14.45;;;;;;;;;;5090728;28;20118;-59
2022/03/22 00:20:10;;;;;;;19.73;13.30;;;;;;;;;;5091056;28;20040;-58
2022/03/22 00:22:37;;;;;;;26.75;14.38;;;;;;;;;;5091016;28;20103;-59
2022/03/22 00:25:04;;;;;;;24.15;13.80;;;;;;;;;;5091082;28;20165;-59
2022/03/22 00:27:50;;;;;;;23.27;13.57;;;;;;;;;;5091063;28;20047;-59
2022/03/22 00:30:16;;;;;;;26.50;14.18;;;;;;;;;;5090604;28;20074;-58
2022/03/22 00:32:42;;;;;;;23.17;13.55;;;;;;;;;;5091232;28;20031;-59
2022/03/22 00:35:08;;;;;;;22.52;13.48;;;;;;;;;;5090917;28;20039;-59
2022/03/22 00:37:37;;;;;;;18.98;12.85;;;;;;;;;;5090365;28;20110;-59
2022/03/22 00:40:08;;;;;;;18.88;13.30;;;;;;;;;;5090665;28;20024;-59
2022/03/22 00:42:34;;;;;;;22.50;13.88;;;;;;;;;;5090567;28;20086;-59
2022/03/22 00:45:01;;;;;;;21.30;13.63;;;;;;;;;;5091016;28;20016;-59
2022/03/22 00:47:27;;;;;;;21.90;13.45;;;;;;;;;;5090642;28;20124;-59
2022/03/22 00:49:53;;;;;;;20.35;13.63;;;;;;;;;;5089944;28;20114;-59
2022/03/22 00:52:19;;;;;;;21.75;13.38;;;;;;;;;;5090461;28;20115;-59
2022/03/22 00:54:45;;;;;;;22.50;13.60;;;;;;;;;;5088369;28;20073;-59
2022/03/22 00:57:11;;;;;;;22.42;13.05;;;;;;;;;;5090286;28;20786;-59
2022/03/22 01:02:23;;;;;;;20.48;12.93;;;;;;;;;;5070029;28;20128;-59
2022/03/22 01:04:49;;;;;;;26.52;12.32;;;;;;;;;;5085864;28;20028;-58
2022/03/22 01:07:15;;;;;;;24.98;13.43;;;;;;;;;;5089423;28;20032;-59
2022/03/22 01:09:42;;;;;;;18.58;11.00;;;;;;;;;;5090306;28;20032;-59
2022/03/22 01:12:08;;;;;;;20.48;12.60;;;;;;;;;;5089972;28;20454;-59
2022/03/22 01:14:34;;;;;;;17.83;13.18;;;;;;;;;;5089880;28;20115;-59
2022/03/22 01:17:00;;;;;;;19.23;12.15;;;;;;;;;;5090240;28;20518;-58
2022/03/22 01:19:26;;;;;;;19.55;12.15;;;;;;;;;;5083100;28;20054;-58
2022/03/22 01:21:52;;;;;;;21.83;12.38;;;;;;;;;;5090337;28;20107;-59
2022/03/22 01:24:18;;;;;;;20.63;13.38;;;;;;;;;;5090160;28;20024;-58
2022/03/22 01:26:44;;;;;;;18.77;12.45;;;;;;;;;;5089823;28;20667;-59
2022/03/22 01:29:11;;;;;;;19.50;11.85;;;;;;;;;;5090137;28;20081;-59
2022/03/22 01:31:37;;;;;;;19.75;13.25;;;;;;;;;;5089865;28;20039;-59
2022/03/22 01:34:04;;;;;;;16.48;12.00;;;;;;;;;;5089293;28;20020;-59
2022/03/22 01:36:31;;;;;;;18.05;11.63;;;;;;;;;;5089853;28;20016;-59
2022/03/22 01:38:58;;;;;;;19.02;12.13;;;;;;;;;;5070023;28;20032;-59
2022/03/22 01:41:24;;;;;;;23.88;12.45;;;;;;;;;;5087960;28;20024;-59
2022/03/22 01:43:50;;;;;;;21.80;12.70;;;;;;;;;;5089680;28;20077;-59
2022/03/22 01:46:17;;;;;;;17.88;11.82;;;;;;;;;;5088261;28;20036;-59
2022/03/22 01:48:43;;;;;;;16.08;12.20;;;;;;;;;;5088679;28;20512;-59
2022/03/22 01:51:10;;;;;;;17.80;11.80;;;;;;;;;;5088896;28;20557;-59
2022/03/22 01:53:37;;;;;;;18.90;12.20;;;;;;;;;;5089553;28;20546;-58
2022/03/22 01:56:03;;;;;;;16.70;11.18;;;;;;;;;;5088720;28;20054;-59
2022/03/22 01:58:29;;;;;;;16.02;11.55;;;;;;;;;;5089463;28;20051;-59
2022/03/22 02:05:51;;;;;;;15.07;10.52;;;;;;;;;;5089302;28;20016;-59
2022/03/22 02:06:32;;;;;;;18.08;11.98;;;;;;;;;;5089059;28;20249;-60
2022/03/22 02:08:59;;;;;;;16.30;11.75;;;;;;;;;;5088937;28;20054;-60
2022/03/22 02:11:25;;;;;;;16.60;11.38;;;;;;;;;;5088700;28;20111;-59
2022/03/22 02:13:51;;;;;;;15.75;11.13;;;;;;;;;;5083039;28;20130;-59
2022/03/22 02:16:17;;;;;;;18.83;12.15;;;;;;;;;;5088730;28;20101;-60
2022/03/22 02:18:43;;;;;;;18.23;12.30;;;;;;;;;;5088438;28;20086;-59
2022/03/22 02:21:12;;;;;;;16.17;11.57;;;;;;;;;;5088887;28;20031;-60
2022/03/22 02:23:55;;;;;;;15.48;11.55;;;;;;;;;;5078072;28;20373;-60
2022/03/22 02:26:22;;;;;;;16.17;11.43;;;;;;;;;;5088544;28;20052;-60
2022/03/22 02:28:53;;;;;;;17.58;11.05;;;;;;;;;;5088486;28;20119;-59
2022/03/22 02:31:19;;;;;;;17.85;11.63;;;;;;;;;;5088503;28;20027;-59
2022/03/22 02:33:45;;;;;;;16.05;10.77;;;;;;;;;;5089056;28;20119;-59
2022/03/22 02:36:11;;;;;;;16.52;11.82;;;;;;;;;;5088418;28;20024;-59
2022/03/22 02:38:37;;;;;;;13.95;10.55;;;;;;;;;;5088888;28;20059;-59
2022/03/22 02:41:04;;;;;;;15.65;11.45;;;;;;;;;;5088924;28;20107;-58
2022/03/22 02:43:30;;;;;;;16.90;11.85;;;;;;;;;;5088586;28;20492;-58
2022/03/22 02:45:56;;;;;;;18.27;11.05;;;;;;;;;;5088605;28;20024;-59
2022/03/22 02:48:22;;;;;;;19.10;12.35;;;;;;;;;;5088258;28;20040;-59
2022/03/22 02:50:48;;;;;;;15.30;10.85;;;;;;;;;;5089020;28;20044;-59
2022/03/22 02:53:14;;;;;;;15.20;10.93;;;;;;;;;;5088420;28;20021;-59
2022/03/22 02:55:40;;;;;;;17.08;10.68;;;;;;;;;;5088134;28;20523;-59
2022/03/22 02:58:06;;;;;;;17.58;10.75;;;;;;;;;;5088252;28;20132;-60
2022/03/22 03:00:32;;;;;;;15.55;11.05;;;;;;;;;;5087885;28;20024;-59
2022/03/22 03:02:59;;;;;;;16.00;11.32;;;;;;;;;;5087866;28;20026;-59
2022/03/22 03:05:25;;;;;;;16.15;11.63;;;;;;;;;;5087949;28;20111;-59
2022/03/22 03:07:51;;;;;;;16.17;11.43;;;;;;;;;;5087199;28;20169;-60
2022/03/22 03:10:17;;;;;;;14.13;10.35;;;;;;;;;;5088497;28;20043;-59
2022/03/22 03:12:44;;;;;;;14.77;10.15;;;;;;;;;;5087649;28;20086;-59
2022/03/22 03:15:11;;;;;;;14.07;10.63;;;;;;;;;;5088012;28;20031;-60
2022/03/22 03:17:37;;;;;;;16.42;12.02;;;;;;;;;;5087755;28;20039;-59
2022/03/22 03:20:04;;;;;;;14.43;10.80;;;;;;;;;;5088031;28;20811;-59
2022/03/22 03:22:31;;;;;;;17.27;11.25;;;;;;;;;;5087911;28;20031;-59
2022/03/22 03:24:57;;;;;;;15.80;11.13;;;;;;;;;;5087486;28;20348;-60
2022/03/22 03:27:23;;;;;;;14.88;10.65;;;;;;;;;;5087601;28;20059;-59
2022/03/22 03:29:49;;;;;;;13.75;10.13;;;;;;;;;;5086929;28;20493;-59
2022/03/22 03:32:15;;;;;;;15.55;11.15;;;;;;;;;;5087964;28;20111;-59
2022/03/22 03:34:41;;;;;;;15.32;10.63;;;;;;;;;;5087159;28;20032;-59
2022/03/22 03:37:07;;;;;;;13.38;10.23;;;;;;;;;;5087505;28;20119;-59
2022/03/22 03:39:34;;;;;;;13.18;10.07;;;;;;;;;;5087472;28;20047;-59
2022/03/22 03:42:02;;;;;;;14.02;9.80;;;;;;;;;;5087635;28;20028;-59
2022/03/22 03:47:14;;;;;;;15.23;10.63;;;;;;;;;;5088145;28;20043;-60
2022/03/22 03:49:48;;;;;;;15.27;10.52;;;;;;;;;;5087499;28;20028;-60
2022/03/22 03:52:20;;;;;;;13.43;10.40;;;;;;;;;;5087864;28;20028;-59
2022/03/22 03:54:46;;;;;;;13.95;10.57;;;;;;;;;;5087334;28;20097;-59
2022/03/22 03:57:13;;;;;;;15.15;11.00;;;;;;;;;;5087731;28;20103;-59
2022/03/22 03:59:40;;;;;;;15.25;11.00;;;;;;;;;;5087349;28;20107;-59
2022/03/22 04:02:08;;;;;;;14.02;10.35;;;;;;;;;;5088391;28;20041;-59
2022/03/22 04:04:35;;;;;;;14.02;10.02;;;;;;;;;;5088788;28;20181;-59
2022/03/22 04:07:01;;;;;;;14.52;10.48;;;;;;;;;;5088444;28;20445;-59
2022/03/22 04:09:28;;;;;;;15.70;10.52;;;;;;;;;;5088686;28;20036;-58
2022/03/22 04:11:55;;;;;;;15.32;10.98;;;;;;;;;;5088507;28;20035;-59
2022/03/22 04:14:20;;;;;;;14.20;11.07;;;;;;;;;;5088391;28;20062;-60
2022/03/22 04:16:47;;;;;;;17.80;11.30;;;;;;;;;;5087792;28;20140;-59
2022/03/22 04:19:13;;;;;;;14.20;10.90;;;;;;;;;;5088647;28;20028;-60
2022/03/22 04:21:39;;;;;;;13.88;10.15;;;;;;;;;;5088054;28;20031;-60
2022/03/22 04:24:06;;;;;;;14.75;10.25;;;;;;;;;;5088257;28;20104;-59
2022/03/22 04:26:33;;;;;;;13.38;9.70;;;;;;;;;;5087454;28;20048;-59
2022/03/22 04:34:29;;;;;;;15.52;10.25;;;;;;;;;;5067564;28;20039;-59
2022/03/22 04:36:55;;;;;;;19.85;10.35;;;;;;;;;;5083460;28;20108;-58
2022/03/22 04:39:23;;;;;;;13.25;10.43;;;;;;;;;;5086402;28;20577;-59
2022/03/22 04:41:49;;;;;;;13.02;10.13;;;;;;;;;;5088311;28;20706;-58
2022/03/22 04:44:17;;;;;;;18.17;10.88;;;;;;;;;;5090577;28;20060;-59
2022/03/22 04:46:44;;;;;;;13.20;9.45;;;;;;;;;;5090143;28;20549;-59
2022/03/22 04:49:10;;;;;;;14.60;9.75;;;;;;;;;;5090386;28;20040;-60
2022/03/22 04:57:05;;;;;;;20.38;10.73;;;;;;;;;;5090225;28;20158;-59
2022/03/22 04:59:31;;;;;;;14.85;10.57;;;;;;;;;;5090612;28;20107;-59
2022/03/22 05:01:59;;;;;;;15.55;10.20;;;;;;;;;;5090701;28;20130;-59
2022/03/22 05:04:25;;;;;;;15.70;10.27;;;;;;;;;;5090473;28;20543;-59
2022/03/22 05:06:52;;;;;;;19.52;10.45;;;;;;;;;;5090512;28;20024;-59
2022/03/22 05:09:18;;;;;;;15.10;9.82;;;;;;;;;;5090224;28;20838;-59
2022/03/22 05:11:44;;;;;;;18.35;11.13;;;;;;;;;;5090211;28;20030;-60
2022/03/22 05:14:13;;;;;;;23.50;11.88;;;;;;;;;;5090342;28;20135;-59
2022/03/22 05:16:39;;;;;;;19.08;12.13;;;;;;;;;;5090053;28;20028;-59
2022/03/22 05:19:05;;;;;;;18.55;11.90;;;;;;;;;;5090390;28;20019;-59
2022/03/22 05:21:32;;;;;;;18.33;12.00;;;;;;;;;;5090298;28;20028;-60
2022/03/22 05:23:58;;;;;;;14.25;11.27;;;;;;;;;;5089973;28;20412;-60
2022/03/22 05:26:26;;;;;;;18.42;11.82;;;;;;;;;;5090128;28;20040;-60
2022/03/22 05:28:53;;;;;;;17.75;11.55;;;;;;;;;;5086483;28;20036;-60
2022/03/22 05:31:21;;;;;;;19.60;12.20;;;;;;;;;;5089461;28;20028;-58
2022/03/22 05:33:48;;;;;;;40.75;15.07;;;;;;;;;;5089402;28;20017;-57
2022/03/22 05:36:14;;;;;;;38.78;17.45;;;;;;;;;;5089213;28;20051;-59
2022/03/22 05:38:40;;;;;;;27.85;18.25;;;;;;;;;;5089256;28;20124;-58
2022/03/22 05:41:08;;;;;;;36.90;20.60;;;;;;;;;;5089401;28;20028;-57
2022/03/22 05:43:34;;;;;;;34.90;23.10;;;;;;;;;;5088694;28;20064;-58
2022/03/22 05:46:01;;;;;;;30.58;21.85;;;;;;;;;;5086939;28;20516;-58
2022/03/22 05:48:27;;;;;;;33.97;24.25;;;;;;;;;;5081204;28;20071;-58
2022/03/22 05:50:53;;;;;;;31.40;21.20;;;;;;;;;;5088965;28;20056;-59
2022/03/22 05:53:20;;;;;;;37.92;22.85;;;;;;;;;;5088520;28;20039;-59
2022/03/22 05:55:46;;;;;;;32.00;21.77;;;;;;;;;;5089154;28;20028;-59
2022/03/22 05:58:13;;;;;;;36.15;21.40;;;;;;;;;;5089314;28;20031;-59
2022/03/22 06:00:39;;;;;;;30.95;22.02;;;;;;;;;;5089053;28;20108;-58
2022/03/22 06:03:05;;;;;;;30.45;21.73;;;;;;;;;;5088888;28;20028;-59
2022/03/22 06:05:31;;;;;;;41.38;20.90;;;;;;;;;;5088462;28;20035;-59
2022/03/22 06:07:58;;;;;;;33.72;20.85;;;;;;;;;;5089209;28;20044;-59
2022/03/22 06:10:24;;;;;;;32.70;20.40;;;;;;;;;;5088932;28;20028;-60
2022/03/22 06:12:51;;;;;;;32.95;20.70;;;;;;;;;;5089387;28;20024;-59
2022/03/22 06:15:31;;;;;;;26.02;17.83;;;;;;;;;;5082347;28;20033;-58
2022/03/22 06:17:58;;;;;;;29.33;19.90;;;;;;;;;;5080093;28;20027;-59
2022/03/22 06:20:34;;;;;;;30.73;19.10;;;;;;;;;;5082185;28;20017;-59
2022/03/22 06:23:01;;;;;;;30.45;19.27;;;;;;;;;;5080255;28;20581;-60
2022/03/22 06:25:28;;;;;;;32.25;17.98;;;;;;;;;;5082155;28;20174;-59
2022/03/22 06:27:54;;;;;;;26.45;17.70;;;;;;;;;;5079796;28;20032;-60
2022/03/22 06:30:21;;;;;;;28.42;18.20;;;;;;;;;;5083677;28;20049;-60
2022/03/22 06:32:48;;;;;;;25.75;17.27;;;;;;;;;;5077790;28;20028;-59
2022/03/22 06:35:15;;;;;;;23.55;16.60;;;;;;;;;;5084183;28;20032;-59
2022/03/22 06:37:41;;;;;;;26.23;17.60;;;;;;;;;;5079822;28;20055;-59
2022/03/22 06:40:10;;;;;;;25.48;16.33;;;;;;;;;;5083186;28;20060;-59
2022/03/22 06:42:37;;;;;;;25.60;17.30;;;;;;;;;;5078076;28;20459;-58
2022/03/22 06:45:05;;;;;;;23.27;15.45;;;;;;;;;;5082318;28;20020;-56
2022/03/22 06:47:31;;;;;;;19.83;14.90;;;;;;;;;;5082084;28;20029;-57
2022/03/22 06:49:58;;;;;;;23.65;15.43;;;;;;;;;;5078290;28;20549;-57
2022/03/22 06:52:24;;;;;;;22.15;16.00;;;;;;;;;;5080428;28;20025;-56
2022/03/22 06:54:50;;;;;;;22.58;14.48;;;;;;;;;;5079087;28;20496;-58
2022/03/22 06:57:16;;;;;;;19.60;14.77;;;;;;;;;;5081805;28;20452;-58
2022/03/22 06:59:42;;;;;;;21.38;13.88;;;;;;;;;;5076542;28;20086;-56
2022/03/22 07:02:09;;;;;;;22.15;14.82;;;;;;;;;;5082342;28;20491;-59
2022/03/22 07:04:35;;;;;;;24.85;15.13;;;;;;;;;;5075622;28;20039;-58
2022/03/22 07:07:02;;;;;;;18.05;13.68;;;;;;;;;;5080626;28;20036;-59
2022/03/22 07:09:28;;;;;;;20.13;14.13;;;;;;;;;;5080794;28;20040;-60
2022/03/22 07:11:56;;;;;;;19.77;13.75;;;;;;;;;;5081088;28;20568;-59
2022/03/22 07:14:26;;;;;;;21.30;13.40;;;;;;;;;;5073065;28;20028;-60
2022/03/22 07:16:52;;;;;;;20.55;13.15;;;;;;;;;;5080118;28;20119;-58
2022/03/22 07:19:20;;;;;;;19.65;12.80;;;;;;;;;;5088828;28;20743;-60
2022/03/22 07:21:46;;;;;;;24.80;13.52;;;;;;;;;;5088262;28;20430;-57
2022/03/22 07:24:13;;;;;;;22.95;12.95;;;;;;;;;;5087862;28;20417;-56
2022/03/22 07:26:40;;;;;;;21.02;13.40;;;;;;;;;;5088196;28;20044;-58
2022/03/22 07:29:06;;;;;;;22.58;13.45;;;;;;;;;;5087910;28;20105;-58
2022/03/22 07:31:37;;;;;;;19.33;12.50;;;;;;;;;;5088454;28;20137;-60
2022/03/22 07:34:05;;;;;;;18.33;12.13;;;;;;;;;;5088228;28;20099;-59
2022/03/22 07:36:31;;;;;;;29.85;17.88;;;;;;;;;;5088387;28;20032;-58
2022/03/22 07:38:57;;;;;;;26.08;15.40;;;;;;;;;;5088339;28;20149;-58
2022/03/22 07:41:23;;;;;;;25.88;15.63;;;;;;;;;;5087086;28;20036;-59
2022/03/22 07:43:49;;;;;;;22.30;14.52;;;;;;;;;;5074077;28;20100;-59
2022/03/22 07:46:15;;;;;;;27.60;15.63;;;;;;;;;;5070155;28;20379;-59
2022/03/22 07:48:41;;;;;;;24.17;14.00;;;;;;;;;;5075835;28;20122;-60
2022/03/22 07:53:52;;;;;;;27.58;13.20;;;;;;;;;;5074781;28;20035;-58
2022/03/22 07:56:18;;;;;;;26.38;14.20;;;;;;;;;;5077072;28;20020;-59
2022/03/22 07:58:44;;;;;;;30.83;12.15;;;;;;;;;;5078627;28;20494;-59
2022/03/22 08:01:10;;;;;;;24.23;12.13;;;;;;;;;;5073542;28;20055;-58
2022/03/22 08:03:37;;;;;;;29.25;13.48;;;;;;;;;;5077040;28;20043;-59
2022/03/22 08:06:07;;;;;;;36.28;19.23;;;;;;;;;;5071399;28;20553;-58
2022/03/22 08:08:33;;;;;;;34.28;19.95;;;;;;;;;;5071480;28;20033;-57
2022/03/22 08:10:59;;;;;;;27.73;19.80;;;;;;;;;;5069447;28;20810;-58
2022/03/22 08:13:26;;;;;;;34.00;21.48;;;;;;;;;;5077583;28;20027;-59
2022/03/22 08:15:53;;;;;;;35.63;22.15;;;;;;;;;;5072125;28;20119;-59
2022/03/22 08:18:20;;;;;;;36.22;22.58;;;;;;;;;;5076936;28;20067;-58
2022/03/22 08:20:46;;;;;;;33.13;21.33;;;;;;;;;;5080561;28;20024;-58
2022/03/22 08:23:12;;;;;;;39.03;22.63;;;;;;;;;;5077931;28;20040;-59
2022/03/22 08:25:40;;;;;;;34.70;21.88;;;;;;;;;;5076312;28;20052;-59
2022/03/22 08:28:08;;;;;;;34.97;21.50;;;;;;;;;;5075137;28;20043;-59
2022/03/22 08:30:34;;;;;;;34.67;21.90;;;;;;;;;;5077448;28;20033;-58
2022/03/22 08:33:09;;;;;;;37.97;22.05;;;;;;;;;;5075369;28;20039;-59
2022/03/22 08:35:36;;;;;;;36.45;23.40;;;;;;;;;;5074300;28;20493;-59
2022/03/22 08:38:03;;;;;;;42.95;24.50;;;;;;;;;;5074993;28;20799;-59
2022/03/22 08:40:29;;;;;;;34.92;23.42;;;;;;;;;;5076558;28;20081;-60
2022/03/22 08:42:56;;;;;;;42.33;24.10;;;;;;;;;;5073559;28;20028;-58
2022/03/22 08:45:23;;;;;;;36.40;22.10;;;;;;;;;;5073734;28;20095;-58
2022/03/22 08:47:50;;;;;;;44.80;23.88;;;;;;;;;;5076080;28;20044;-58
2022/03/22 08:50:19;;;;;;;41.72;22.35;;;;;;;;;;5074561;28;20020;-57
2022/03/22 08:52:47;;;;;;;38.15;23.75;;;;;;;;;;5073044;28;20028;-59
2022/03/22 08:55:14;;;;;;;36.10;21.95;;;;;;;;;;5075824;28;20495;-57
2022/03/22 08:57:41;;;;;;;37.05;22.90;;;;;;;;;;5071806;28;20164;-60
2022/03/22 09:00:09;;;;;;;37.03;23.75;;;;;;;;;;5077338;28;20034;-58
2022/03/22 09:02:39;;;;;;;37.22;24.40;;;;;;;;;;5071679;28;20498;-59
2022/03/22 09:07:51;;;;;;;32.42;22.92;;;;;;;;;;5076019;28;20124;-58
2022/03/22 09:10:21;;;;;;;39.97;23.85;;;;;;;;;;5079463;28;20029;-58
2022/03/22 09:12:50;;;;;;;35.40;23.27;;;;;;;;;;5076373;28;20434;-58
2022/03/22 09:15:16;;;;;;;38.47;24.38;;;;;;;;;;5073478;28;20036;-62
2022/03/22 09:17:42;;;;;;;33.70;22.08;;;;;;;;;;5073052;28;20485;-60
2022/03/22 09:20:12;;;;;;;31.15;23.02;;;;;;;;;;5077560;28;20036;-57
2022/03/22 09:22:38;;;;;;;38.00;24.97;;;;;;;;;;5076306;28;20110;-58
2022/03/22 09:25:04;;;;;;;31.77;23.23;;;;;;;;;;5075468;28;20027;-59
2022/03/22 09:27:30;;;;;;;33.03;22.63;;;;;;;;;;5072895;28;20040;-59
2022/03/22 09:29:57;;;;;;;29.40;22.30;;;;;;;;;;5075109;28;20045;-59
2022/03/22 09:32:23;;;;;;;34.97;22.17;;;;;;;;;;5071225;28;20493;-58
2022/03/22 09:34:49;;;;;;;32.38;22.25;;;;;;;;;;5079798;28;20038;-59
2022/03/22 09:37:16;;;;;;;32.78;23.42;;;;;;;;;;5089551;28;20024;-58
2022/03/22 09:39:43;;;;;;;33.45;22.35;;;;;;;;;;5067665;28;20032;-58
2022/03/22 09:42:10;;;;;;;34.25;22.80;;;;;;;;;;5083915;28;20148;-58
2022/03/22 09:44:36;;;;;;;29.73;21.23;;;;;;;;;;5087556;28;20024;-59
2022/03/22 09:47:03;;;;;;;29.52;21.10;;;;;;;;;;5087757;28;20032;-59
2022/03/22 09:49:30;;;;;;;31.17;22.30;;;;;;;;;;5088484;28;20032;-58
2022/03/22 09:51:56;;;;;;;30.42;21.63;;;;;;;;;;5087495;28;20052;-59
2022/03/22 09:54:23;;;;;;;32.08;21.60;;;;;;;;;;5087400;28;20493;-59
2022/03/22 09:56:49;;;;;;;30.23;22.00;;;;;;;;;;5086787;28;20810;-59
2022/03/22 09:59:17;;;;;;;29.63;22.30;;;;;;;;;;5086968;28;20077;-59
2022/03/22 10:01:43;;;;;;;34.05;20.70;;;;;;;;;;5087005;28;20040;-60
2022/03/22 10:04:14;;;;;;;27.80;20.92;;;;;;;;;;5087503;28;20045;-57
2022/03/22 10:07:03;;;;;;;30.02;21.70;;;;;;;;;;5087601;28;20065;-59
2022/03/22 10:09:36;;;;;;;27.50;21.30;;;;;;;;;;5079414;28;20102;-57
2022/03/22 10:12:03;;;;;;;30.10;21.88;;;;;;;;;;5088034;28;20031;-58
2022/03/22 10:14:33;;;;;;;27.88;22.02;;;;;;;;;;5088576;28;20434;-58
2022/03/22 10:17:07;;;;;;;27.58;21.75;;;;;;;;;;5089255;28;20016;-59
2022/03/22 10:19:33;;;;;;;30.65;21.13;;;;;;;;;;5089486;28;20028;-59
2022/03/22 10:22:09;;;;;;;29.48;20.85;;;;;;;;;;5089532;28;20070;-59
2022/03/22 10:24:42;;;;;;;26.38;20.95;;;;;;;;;;5089741;28;20622;-59
2022/03/22 10:27:28;;;;;;;26.77;20.65;;;;;;;;;;5088280;28;20490;-58
2022/03/22 10:29:55;;;;;;;25.10;19.92;;;;;;;;;;5078302;28;20093;-58
2022/03/22 10:32:29;;;;;;;28.15;21.77;;;;;;;;;;5088790;28;20115;-59
2022/03/22 10:34:56;;;;;;;25.55;20.52;;;;;;;;;;5089423;28;20131;-59
2022/03/22 10:37:29;;;;;;;26.85;20.17;;;;;;;;;;5089277;28;20167;-60
2022/03/22 10:39:55;;;;;;;25.08;19.33;;;;;;;;;;5089055;28;20115;-58
2022/03/22 10:42:23;;;;;;;23.73;19.50;;;;;;;;;;5088869;28;20107;-57
2022/03/22 10:44:50;;;;;;;26.70;20.00;;;;;;;;;;5088747;28;20012;-59
2022/03/22 10:47:24;;;;;;;24.33;19.30;;;;;;;;;;5089028;28;20320;-58
2022/03/22 10:50:00;;;;;;;28.52;21.42;;;;;;;;;;5088131;28;20226;-58
2022/03/22 10:52:26;;;;;;;27.02;20.60;;;;;;;;;;5089031;28;20439;-58
2022/03/22 10:54:52;;;;;;;30.02;21.40;;;;;;;;;;5088068;28;20035;-59
2022/03/22 10:57:22;;;;;;;30.60;22.17;;;;;;;;;;5088228;28;20465;-58
2022/03/22 10:59:48;;;;;;;31.63;21.30;;;;;;;;;;5088056;28;20036;-58
2022/03/22 11:02:17;;;;;;;27.63;20.42;;;;;;;;;;5088404;28;20054;-58
2022/03/22 11:04:43;;;;;;;27.77;20.00;;;;;;;;;;5088842;28;20135;-59
2022/03/22 11:07:10;;;;;;;29.40;21.75;;;;;;;;;;5088323;28;20081;-58
2022/03/22 11:09:36;;;;;;;27.80;20.83;;;;;;;;;;5083671;28;20402;-59
2022/03/22 11:12:02;;;;;;;30.73;19.08;;;;;;;;;;5078404;28;20147;-59
2022/03/22 11:14:29;;;;;;;28.25;20.65;;;;;;;;;;5082186;28;20059;-58
2022/03/22 11:16:56;;;;;;;28.45;21.38;;;;;;;;;;5078428;28;20748;-58
2022/03/22 11:19:22;;;;;;;29.48;20.50;;;;;;;;;;5080209;28;20042;-59
2022/03/22 11:21:48;;;;;;;25.05;18.15;;;;;;;;;;5076915;28;20052;-59
2022/03/22 11:24:15;;;;;;;26.25;20.05;;;;;;;;;;5080121;28;20036;-59
2022/03/22 11:26:43;;;;;;;27.35;19.35;;;;;;;;;;5078869;28;20410;-58
2022/03/22 11:29:14;;;;;;;30.13;20.83;;;;;;;;;;5078113;28;20127;-59
2022/03/22 11:31:40;;;;;;;26.48;19.33;;;;;;;;;;5077515;28;20146;-58
2022/03/22 11:34:11;;;;;;;25.25;19.50;;;;;;;;;;5078218;28;20111;-60
2022/03/22 11:36:53;;;;;;;25.25;18.73;;;;;;;;;;5080221;28;20031;-59
2022/03/22 11:42:15;;;;;;;25.25;19.00;;;;;;;;;;5077248;28;20031;-59
2022/03/22 11:42:17;;;;;;;25.60;18.20;;;;;;;;;;5077910;28;20020;-59
2022/03/22 11:44:44;;;;;;;23.52;20.10;;;;;;;;;;5076927;28;20505;-59
2022/03/22 11:47:11;;;;;;;25.73;19.52;;;;;;;;;;5087047;28;20020;-59
2022/03/22 11:49:56;;;;;;;24.75;17.83;;;;;;;;;;5087244;28;20478;-57
2022/03/22 11:52:24;;;;;;;27.05;19.58;;;;;;;;;;5085736;28;20066;-59
2022/03/22 11:55:02;;;;;;;25.13;19.55;;;;;;;;;;5086664;28;20039;-58
2022/03/22 11:57:39;;;;;;;24.33;18.05;;;;;;;;;;5081750;28;20021;-59
2022/03/22 12:00:06;;;;;;;28.80;19.88;;;;;;;;;;5077810;28;20016;-56
2022/03/22 12:02:32;;;;;;;24.00;19.08;;;;;;;;;;5082689;28;20180;-57
2022/03/22 12:04:59;;;;;;;23.85;18.92;;;;;;;;;;5076723;28;20055;-56
2022/03/22 12:07:28;;;;;;;24.13;18.70;;;;;;;;;;5082347;28;20097;-58
2022/03/22 12:10:02;;;;;;;26.90;18.75;;;;;;;;;;5076256;28;20028;-58
2022/03/22 12:12:30;;;;;;;27.48;19.75;;;;;;;;;;5082101;28;20033;-59
2022/03/22 12:14:57;;;;;;;30.27;20.60;;;;;;;;;;5077454;28;20107;-59
2022/03/22 12:17:23;;;;;;;30.20;20.83;;;;;;;;;;5080378;28;20043;-59
2022/03/22 12:19:49;;;;;;;24.85;19.17;;;;;;;;;;5080747;28;20020;-58
2022/03/22 12:22:16;;;;;;;32.35;20.08;;;;;;;;;;5080268;28;20111;-58
2022/03/22 12:24:43;;;;;;;27.23;18.83;;;;;;;;;;5080100;28;20577;-58
2022/03/22 12:27:10;;;;;;;28.55;20.63;;;;;;;;;;5082123;28;20386;-58
2022/03/22 12:29:40;;;;;;;27.23;19.77;;;;;;;;;;5087842;28;20032;-58
2022/03/22 12:32:12;;;;;;;31.17;19.80;;;;;;;;;;5081735;28;20020;-58
2022/03/22 12:34:39;;;;;;;29.08;20.48;;;;;;;;;;5069297;28;20582;-59
2022/03/22 12:37:08;;;;;;;29.40;21.15;;;;;;;;;;5076445;28;20024;-58
2022/03/22 12:39:34;;;;;;;30.85;21.30;;;;;;;;;;5086187;28;20057;-57
2022/03/22 12:42:01;;;;;;;27.40;19.60;;;;;;;;;;5083267;28;20440;-57
2022/03/22 12:44:27;;;;;;;28.05;20.80;;;;;;;;;;5077940;28;20573;-59
2022/03/22 12:46:53;;;;;;;26.85;19.45;;;;;;;;;;5079198;28;20032;-58
2022/03/22 12:49:20;;;;;;;31.50;19.90;;;;;;;;;;5079340;28;20044;-59
2022/03/22 12:51:48;;;;;;;31.15;21.15;;;;;;;;;;5078086;28;20051;-58
2022/03/22 12:54:18;;;;;;;31.92;21.25;;;;;;;;;;5082885;28;20028;-59
2022/03/22 12:56:43;;;;;;;;;;;;;;;;;;5075340;28;20020;-59
2022/03/22 12:59:17;;;;;;;29.20;17.73;;;;;;;;;;5083765;28;20091;-59
2022/03/22 13:01:43;;;;;;;30.95;17.58;;;;;;;;;;5087837;28;20119;-56
2022/03/22 13:04:09;;;;;;;30.80;17.95;;;;;;;;;;5088784;28;20024;-58
2022/03/22 13:06:36;;;;;;;28.73;20.30;;;;;;;;;;5090143;28;20620;-58
2022/03/22 13:11:48;;;;;;;28.45;19.45;;;;;;;;;;5068779;28;20055;-58
2022/03/22 13:16:59;;;;;;;26.63;18.15;;;;;;;;;;5070045;28;20054;-58
2022/03/22 13:19:32;;;;;;;28.33;19.27;;;;;;;;;;5086550;28;20024;-58
2022/03/22 13:21:58;;;;;;;28.45;19.58;;;;;;;;;;5070460;28;20039;-58
2022/03/22 13:24:26;;;;;;;31.73;18.30;;;;;;;;;;5085468;28;20057;-58
2022/03/22 13:26:56;;;;;;;28.27;18.65;;;;;;;;;;5090489;28;20071;-58
2022/03/22 13:29:22;;;;;;;;;;;;;;;;;;5085292;28;20425;-59
2022/03/22 13:32:08;;;;;;;26.67;17.00;;;;;;;;;;5090677;28;19911;-60
2022/03/22 13:34:35;;;;;;;29.00;17.17;;;;;;;;;;5090472;28;20127;-58
2022/03/22 13:37:04;;;;;;;25.55;16.85;;;;;;;;;;5088376;28;20024;-59
2022/03/22 13:39:30;;;;;;;22.20;16.15;;;;;;;;;;5089745;28;20035;-58
2022/03/22 13:42:08;;;;;;;25.42;16.77;;;;;;;;;;5090208;28;20024;-60
2022/03/22 13:44:42;;;;;;;27.73;15.68;;;;;;;;;;5090113;28;20479;-59
2022/03/22 13:47:08;;;;;;;28.48;15.32;;;;;;;;;;5090219;28;20081;-58
2022/03/22 13:49:35;;;;;;;22.95;15.93;;;;;;;;;;5081553;28;20036;-58
2022/03/22 13:52:01;;;;;;;23.73;15.48;;;;;;;;;;5075701;28;20031;-59
2022/03/22 13:54:27;;;;;;;22.95;16.25;;;;;;;;;;5073168;28;20107;-59
2022/03/22 13:57:04;;;;;;;24.00;16.30;;;;;;;;;;5075339;28;20066;-58
2022/03/22 13:59:37;;;;;;;22.80;15.32;;;;;;;;;;5075311;28;20032;-58
2022/03/22 14:02:05;;;;;;;24.08;16.40;;;;;;;;;;5075053;28;20170;-59
2022/03/22 14:04:30;;;;;;;24.98;16.73;;;;;;;;;;5074977;28;20097;-58
2022/03/22 14:06:57;;;;;;;23.48;16.15;;;;;;;;;;5077676;28;20035;-59
2022/03/22 14:09:22;;;;;;;23.83;15.43;;;;;;;;;;5075194;28;20487;-58
2022/03/22 14:11:48;;;;;;;25.27;16.02;;;;;;;;;;5073252;28;20028;-59
2022/03/22 14:14:15;;;;;;;25.02;16.20;;;;;;;;;;5073002;28;20550;-59
2022/03/22 14:16:41;;;;;;;23.80;15.98;;;;;;;;;;5076691;28;20086;-58
2022/03/22 14:19:12;;;;;;;27.05;16.70;;;;;;;;;;5076693;28;20452;-58
2022/03/22 14:21:38;;;;;;;27.60;17.10;;;;;;;;;;5071213;28;20028;-58
2022/03/22 14:24:05;;;;;;;23.83;16.17;;;;;;;;;;5074662;28;20024;-58
2022/03/22 14:26:31;;;;;;;29.13;17.38;;;;;;;;;;5084651;28;20502;-58
2022/03/22 14:28:57;;;;;;;27.40;15.02;;;;;;;;;;5089015;28;20086;-58
2022/03/22 14:31:23;;;;;;;24.73;15.88;;;;;;;;;;5088207;28;20040;-59
2022/03/22 14:33:49;;;;;;;25.23;15.82;;;;;;;;;;5087340;28;20636;-58
2022/03/22 14:36:15;;;;;;;24.98;16.55;;;;;;;;;;5087739;28;20566;-58
2022/03/22 14:38:41;;;;;;;23.77;15.30;;;;;;;;;;5087984;28;20032;-59
2022/03/22 14:41:24;;;;;;;25.67;16.05;;;;;;;;;;5088275;28;20024;-58
2022/03/22 14:43:51;;;;;;;21.92;16.20;;;;;;;;;;5088025;28;20032;-58
2022/03/22 14:46:18;;;;;;;25.58;16.60;;;;;;;;;;5088487;28;20035;-58
2022/03/22 14:48:49;;;;;;;20.88;15.55;;;;;;;;;;5088205;28;20036;-58
2022/03/22 14:51:15;;;;;;;21.08;14.52;;;;;;;;;;5088223;28;20501;-60